sensor_id;sensor_type;location;lat;lon;timestamp;P1;durP1;ratioP1;P2;durP2;ratioP2
29430;SDS011;16404;49.902;10.074;2023-09-19T00:02:15;1.85;;;0.63;;
29430;SDS011;16404;49.902;10.074;2023-09-19T00:05:00;3.45;;;1.15;;
29430;SDS011;16404;49.902;10.074;2023-09-19T00:07:49;2.38;;;1.00;;
29430;SDS011;16404;49.902;10.074;2023-09-19T00:10:35;1.33;;;0.88;;
29430;SDS011;16404;49.902;10.074;2023-09-19T00:13:19;1.88;;;0.90;;
29430;SDS011;16404;49.902;10.074;2023-09-19T00:16:10;2.15;;;1.00;;
29430;SDS011;16404;49.902;10.074;2023-09-19T00:18:55;4.13;;;0.90;;
29430;SDS011;16404;49.902;10.074;2023-09-19T00:21:40;1.48;;;0.80;;
29430;SDS011;16404;49.902;10.074;2023-09-19T00:29:56;1.67;;;0.90;;
29430;SDS011;16404;49.902;10.074;2023-09-19T00:32:40;1.02;;;0.90;;
29430;SDS011;16404;49.902;10.074;2023-09-19T00:35:26;2.05;;;0.88;;
29430;SDS011;16404;49.902;10.074;2023-09-19T00:38:11;3.67;;;1.10;;
29430;SDS011;16404;49.902;10.074;2023-09-19T00:40:56;1.60;;;0.95;;
29430;SDS011;16404;49.902;10.074;2023-09-19T00:43:43;4.22;;;0.90;;
29430;SDS011;16404;49.902;10.074;2023-09-19T00:46:28;1.50;;;1.10;;
29430;SDS011;16404;49.902;10.074;2023-09-19T00:51:58;2.50;;;0.90;;
29430;SDS011;16404;49.902;10.074;2023-09-19T00:54:43;2.17;;;1.10;;
29430;SDS011;16404;49.902;10.074;2023-09-19T00:57:28;1.90;;;1.00;;
29430;SDS011;16404;49.902;10.074;2023-09-19T01:00:16;3.13;;;1.10;;
29430;SDS011;16404;49.902;10.074;2023-09-19T01:03:03;4.65;;;1.10;;
29430;SDS011;16404;49.902;10.074;2023-09-19T01:05:50;1.63;;;1.20;;
29430;SDS011;16404;49.902;10.074;2023-09-19T01:08:36;2.08;;;1.15;;
29430;SDS011;16404;49.902;10.074;2023-09-19T01:11:43;2.92;;;1.15;;
29430;SDS011;16404;49.902;10.074;2023-09-19T01:17:51;4.35;;;1.20;;
29430;SDS011;16404;49.902;10.074;2023-09-19T01:26:37;3.13;;;1.20;;
29430;SDS011;16404;49.902;10.074;2023-09-19T01:29:45;3.45;;;1.23;;
29430;SDS011;16404;49.902;10.074;2023-09-19T01:32:31;2.15;;;1.25;;
29430;SDS011;16404;49.902;10.074;2023-09-19T01:38:01;2.60;;;1.23;;
29430;SDS011;16404;49.902;10.074;2023-09-19T01:40:55;1.58;;;1.00;;
29430;SDS011;16404;49.902;10.074;2023-09-19T01:43:48;5.28;;;1.42;;
29430;SDS011;16404;49.902;10.074;2023-09-19T01:46:34;2.85;;;1.20;;
29430;SDS011;16404;49.902;10.074;2023-09-19T01:49:37;2.58;;;1.45;;
29430;SDS011;16404;49.902;10.074;2023-09-19T01:52:35;2.38;;;1.40;;
29430;SDS011;16404;49.902;10.074;2023-09-19T01:55:26;2.40;;;1.38;;
29430;SDS011;16404;49.902;10.074;2023-09-19T01:58:14;1.95;;;1.20;;
29430;SDS011;16404;49.902;10.074;2023-09-19T02:01:03;2.08;;;1.30;;
29430;SDS011;16404;49.902;10.074;2023-09-19T02:03:49;2.55;;;1.30;;
29430;SDS011;16404;49.902;10.074;2023-09-19T02:06:34;4.03;;;1.33;;
29430;SDS011;16404;49.902;10.074;2023-09-19T02:09:19;2.75;;;1.58;;
29430;SDS011;16404;49.902;10.074;2023-09-19T02:12:03;3.05;;;1.58;;
29430;SDS011;16404;49.902;10.074;2023-09-19T02:14:49;1.95;;;1.42;;
29430;SDS011;16404;49.902;10.074;2023-09-19T02:17:34;3.58;;;1.48;;
29430;SDS011;16404;49.902;10.074;2023-09-19T02:20:18;4.35;;;1.70;;
29430;SDS011;16404;49.902;10.074;2023-09-19T02:23:04;2.95;;;1.58;;
29430;SDS011;16404;49.902;10.074;2023-09-19T02:25:52;4.93;;;1.50;;
29430;SDS011;16404;49.902;10.074;2023-09-19T02:28:44;4.22;;;1.38;;
29430;SDS011;16404;49.902;10.074;2023-09-19T02:31:29;3.25;;;1.30;;
29430;SDS011;16404;49.902;10.074;2023-09-19T02:34:14;4.78;;;1.60;;
29430;SDS011;16404;49.902;10.074;2023-09-19T02:37:07;5.35;;;1.55;;
29430;SDS011;16404;49.902;10.074;2023-09-19T02:39:54;2.50;;;1.40;;
29430;SDS011;16404;49.902;10.074;2023-09-19T02:42:41;5.80;;;1.40;;
29430;SDS011;16404;49.902;10.074;2023-09-19T02:45:26;2.33;;;1.90;;
29430;SDS011;16404;49.902;10.074;2023-09-19T02:48:11;3.25;;;1.77;;
29430;SDS011;16404;49.902;10.074;2023-09-19T02:50:55;3.45;;;1.88;;
29430;SDS011;16404;49.902;10.074;2023-09-19T02:53:40;1.85;;;1.35;;
29430;SDS011;16404;49.902;10.074;2023-09-19T02:56:27;4.18;;;2.10;;
29430;SDS011;16404;49.902;10.074;2023-09-19T02:59:11;3.47;;;1.80;;
29430;SDS011;16404;49.902;10.074;2023-09-19T03:01:56;4.28;;;1.63;;
29430;SDS011;16404;49.902;10.074;2023-09-19T03:04:41;2.55;;;1.60;;
29430;SDS011;16404;49.902;10.074;2023-09-19T03:07:25;4.82;;;1.90;;
29430;SDS011;16404;49.902;10.074;2023-09-19T03:10:10;3.88;;;1.83;;
29430;SDS011;16404;49.902;10.074;2023-09-19T03:12:55;7.53;;;2.22;;
29430;SDS011;16404;49.902;10.074;2023-09-19T03:15:42;5.93;;;2.47;;
29430;SDS011;16404;49.902;10.074;2023-09-19T03:18:37;4.03;;;2.20;;
29430;SDS011;16404;49.902;10.074;2023-09-19T03:21:22;4.53;;;2.00;;
29430;SDS011;16404;49.902;10.074;2023-09-19T03:24:06;6.38;;;2.40;;
29430;SDS011;16404;49.902;10.074;2023-09-19T03:26:51;6.13;;;2.00;;
29430;SDS011;16404;49.902;10.074;2023-09-19T03:29:36;5.28;;;2.10;;
29430;SDS011;16404;49.902;10.074;2023-09-19T03:32:21;11.10;;;2.08;;
29430;SDS011;16404;49.902;10.074;2023-09-19T03:35:06;4.72;;;2.10;;
29430;SDS011;16404;49.902;10.074;2023-09-19T03:37:51;4.22;;;2.05;;
29430;SDS011;16404;49.902;10.074;2023-09-19T03:40:36;5.35;;;2.33;;
29430;SDS011;16404;49.902;10.074;2023-09-19T03:43:21;5.28;;;2.63;;
29430;SDS011;16404;49.902;10.074;2023-09-19T03:46:06;3.30;;;2.10;;
29430;SDS011;16404;49.902;10.074;2023-09-19T03:48:52;5.38;;;2.22;;
29430;SDS011;16404;49.902;10.074;2023-09-19T03:51:38;3.42;;;2.20;;
29430;SDS011;16404;49.902;10.074;2023-09-19T03:54:25;3.58;;;2.55;;
29430;SDS011;16404;49.902;10.074;2023-09-19T03:57:10;4.13;;;2.72;;
29430;SDS011;16404;49.902;10.074;2023-09-19T03:59:56;5.50;;;2.67;;
29430;SDS011;16404;49.902;10.074;2023-09-19T04:02:41;3.85;;;2.60;;
29430;SDS011;16404;49.902;10.074;2023-09-19T04:05:25;5.90;;;2.60;;
29430;SDS011;16404;49.902;10.074;2023-09-19T04:08:10;6.60;;;2.53;;
29430;SDS011;16404;49.902;10.074;2023-09-19T04:10:55;7.25;;;2.97;;
29430;SDS011;16404;49.902;10.074;2023-09-19T04:13:40;4.32;;;2.90;;
29430;SDS011;16404;49.902;10.074;2023-09-19T04:16:25;4.47;;;2.78;;
29430;SDS011;16404;49.902;10.074;2023-09-19T04:19:09;4.43;;;2.60;;
29430;SDS011;16404;49.902;10.074;2023-09-19T04:21:54;6.18;;;3.10;;
29430;SDS011;16404;49.902;10.074;2023-09-19T04:24:38;6.00;;;3.15;;
29430;SDS011;16404;49.902;10.074;2023-09-19T04:27:23;6.25;;;3.00;;
29430;SDS011;16404;49.902;10.074;2023-09-19T04:30:08;3.47;;;3.05;;
29430;SDS011;16404;49.902;10.074;2023-09-19T04:32:55;5.95;;;3.28;;
29430;SDS011;16404;49.902;10.074;2023-09-19T04:35:39;3.42;;;2.97;;
29430;SDS011;16404;49.902;10.074;2023-09-19T04:38:26;3.50;;;3.10;;
29430;SDS011;16404;49.902;10.074;2023-09-19T04:41:13;5.25;;;3.50;;
29430;SDS011;16404;49.902;10.074;2023-09-19T04:43:59;5.90;;;3.35;;
29430;SDS011;16404;49.902;10.074;2023-09-19T04:49:30;6.22;;;3.50;;
29430;SDS011;16404;49.902;10.074;2023-09-19T04:52:14;7.78;;;3.85;;
29430;SDS011;16404;49.902;10.074;2023-09-19T04:54:59;5.13;;;3.38;;
29430;SDS011;16404;49.902;10.074;2023-09-19T04:57:47;6.43;;;3.50;;
29430;SDS011;16404;49.902;10.074;2023-09-19T05:00:33;5.18;;;3.38;;
29430;SDS011;16404;49.902;10.074;2023-09-19T05:03:18;6.15;;;3.70;;
29430;SDS011;16404;49.902;10.074;2023-09-19T05:06:03;8.65;;;3.95;;
29430;SDS011;16404;49.902;10.074;2023-09-19T05:08:49;11.35;;;3.53;;
29430;SDS011;16404;49.902;10.074;2023-09-19T05:11:34;6.10;;;3.78;;
29430;SDS011;16404;49.902;10.074;2023-09-19T05:14:20;6.38;;;3.53;;
29430;SDS011;16404;49.902;10.074;2023-09-19T05:17:06;5.22;;;3.60;;
29430;SDS011;16404;49.902;10.074;2023-09-19T05:19:51;4.30;;;3.70;;
29430;SDS011;16404;49.902;10.074;2023-09-19T05:22:36;6.32;;;3.97;;
29430;SDS011;16404;49.902;10.074;2023-09-19T05:25:23;5.32;;;3.63;;
29430;SDS011;16404;49.902;10.074;2023-09-19T05:28:10;5.80;;;3.63;;
29430;SDS011;16404;49.902;10.074;2023-09-19T05:31:02;12.35;;;3.72;;
29430;SDS011;16404;49.902;10.074;2023-09-19T05:33:46;7.95;;;3.20;;
29430;SDS011;16404;49.902;10.074;2023-09-19T05:36:31;5.05;;;3.65;;
29430;SDS011;16404;49.902;10.074;2023-09-19T05:39:16;5.05;;;3.40;;
29430;SDS011;16404;49.902;10.074;2023-09-19T05:42:00;6.75;;;3.30;;
29430;SDS011;16404;49.902;10.074;2023-09-19T05:44:45;8.18;;;3.40;;
29430;SDS011;16404;49.902;10.074;2023-09-19T05:47:29;4.75;;;3.08;;
29430;SDS011;16404;49.902;10.074;2023-09-19T05:50:14;7.18;;;3.20;;
29430;SDS011;16404;49.902;10.074;2023-09-19T05:53:00;8.65;;;2.70;;
29430;SDS011;16404;49.902;10.074;2023-09-19T05:55:44;4.90;;;2.22;;
29430;SDS011;16404;49.902;10.074;2023-09-19T05:58:29;5.15;;;2.45;;
29430;SDS011;16404;49.902;10.074;2023-09-19T06:01:13;3.08;;;2.33;;
29430;SDS011;16404;49.902;10.074;2023-09-19T06:06:44;4.23;;;2.23;;
29430;SDS011;16404;49.902;10.074;2023-09-19T06:09:31;4.35;;;2.00;;
29430;SDS011;16404;49.902;10.074;2023-09-19T06:12:15;3.85;;;2.20;;
29430;SDS011;16404;49.902;10.074;2023-09-19T06:15:00;3.95;;;1.90;;
29430;SDS011;16404;49.902;10.074;2023-09-19T06:17:48;5.57;;;2.40;;
29430;SDS011;16404;49.902;10.074;2023-09-19T06:20:33;5.07;;;2.28;;
29430;SDS011;16404;49.902;10.074;2023-09-19T06:23:19;4.68;;;2.08;;
29430;SDS011;16404;49.902;10.074;2023-09-19T06:26:05;3.88;;;2.20;;
29430;SDS011;16404;49.902;10.074;2023-09-19T06:28:50;5.78;;;2.40;;
29430;SDS011;16404;49.902;10.074;2023-09-19T06:31:35;4.38;;;2.03;;
29430;SDS011;16404;49.902;10.074;2023-09-19T06:34:19;2.28;;;1.98;;
29430;SDS011;16404;49.902;10.074;2023-09-19T06:37:04;5.78;;;2.28;;
29430;SDS011;16404;49.902;10.074;2023-09-19T06:39:52;4.10;;;2.28;;
29430;SDS011;16404;49.902;10.074;2023-09-19T06:42:37;7.65;;;2.20;;
29430;SDS011;16404;49.902;10.074;2023-09-19T06:45:21;3.08;;;2.35;;
29430;SDS011;16404;49.902;10.074;2023-09-19T06:48:06;4.07;;;2.10;;
29430;SDS011;16404;49.902;10.074;2023-09-19T06:50:52;8.00;;;2.60;;
29430;SDS011;16404;49.902;10.074;2023-09-19T06:53:39;7.80;;;2.40;;
29430;SDS011;16404;49.902;10.074;2023-09-19T06:56:24;3.63;;;2.45;;
29430;SDS011;16404;49.902;10.074;2023-09-19T06:59:09;5.65;;;3.10;;
29430;SDS011;16404;49.902;10.074;2023-09-19T07:01:55;4.78;;;2.35;;
29430;SDS011;16404;49.902;10.074;2023-09-19T07:04:43;4.85;;;2.40;;
29430;SDS011;16404;49.902;10.074;2023-09-19T07:07:27;4.68;;;2.53;;
29430;SDS011;16404;49.902;10.074;2023-09-19T07:10:13;6.95;;;2.47;;
29430;SDS011;16404;49.902;10.074;2023-09-19T07:13:01;10.75;;;2.90;;
29430;SDS011;16404;49.902;10.074;2023-09-19T07:15:47;6.28;;;2.53;;
29430;SDS011;16404;49.902;10.074;2023-09-19T07:18:33;5.00;;;2.42;;
29430;SDS011;16404;49.902;10.074;2023-09-19T07:21:18;5.75;;;2.58;;
29430;SDS011;16404;49.902;10.074;2023-09-19T07:24:02;13.73;;;2.70;;
29430;SDS011;16404;49.902;10.074;2023-09-19T07:26:47;2.67;;;2.25;;
29430;SDS011;16404;49.902;10.074;2023-09-19T07:29:32;5.38;;;2.50;;
29430;SDS011;16404;49.902;10.074;2023-09-19T07:32:17;7.05;;;2.22;;
29430;SDS011;16404;49.902;10.074;2023-09-19T07:35:02;4.32;;;2.13;;
29430;SDS011;16404;49.902;10.074;2023-09-19T07:37:48;6.10;;;2.42;;
29430;SDS011;16404;49.902;10.074;2023-09-19T07:40:33;6.88;;;2.53;;
29430;SDS011;16404;49.902;10.074;2023-09-19T07:43:17;5.30;;;2.60;;
29430;SDS011;16404;49.902;10.074;2023-09-19T07:46:05;5.00;;;2.35;;
29430;SDS011;16404;49.902;10.074;2023-09-19T07:48:51;6.28;;;1.90;;
29430;SDS011;16404;49.902;10.074;2023-09-19T07:51:35;4.60;;;1.95;;
29430;SDS011;16404;49.902;10.074;2023-09-19T07:54:20;6.95;;;2.10;;
29430;SDS011;16404;49.902;10.074;2023-09-19T07:57:05;5.18;;;2.00;;
29430;SDS011;16404;49.902;10.074;2023-09-19T07:59:49;2.92;;;1.75;;
29430;SDS011;16404;49.902;10.074;2023-09-19T08:02:34;6.95;;;1.95;;
29430;SDS011;16404;49.902;10.074;2023-09-19T08:05:23;3.10;;;1.63;;
29430;SDS011;16404;49.902;10.074;2023-09-19T08:08:08;7.10;;;1.90;;
29430;SDS011;16404;49.902;10.074;2023-09-19T08:10:56;5.40;;;1.80;;
29430;SDS011;16404;49.902;10.074;2023-09-19T08:13:41;5.50;;;1.73;;
29430;SDS011;16404;49.902;10.074;2023-09-19T08:16:29;4.22;;;1.92;;
29430;SDS011;16404;49.902;10.074;2023-09-19T08:19:13;4.47;;;1.90;;
29430;SDS011;16404;49.902;10.074;2023-09-19T08:21:58;3.05;;;1.70;;
29430;SDS011;16404;49.902;10.074;2023-09-19T08:24:43;4.53;;;1.80;;
29430;SDS011;16404;49.902;10.074;2023-09-19T08:27:27;3.47;;;1.70;;
29430;SDS011;16404;49.902;10.074;2023-09-19T08:30:12;6.78;;;1.90;;
29430;SDS011;16404;49.902;10.074;2023-09-19T08:32:57;5.40;;;2.00;;
29430;SDS011;16404;49.902;10.074;2023-09-19T08:35:43;6.32;;;2.08;;
29430;SDS011;16404;49.902;10.074;2023-09-19T08:38:29;7.53;;;2.40;;
29430;SDS011;16404;49.902;10.074;2023-09-19T08:41:14;3.08;;;1.90;;
29430;SDS011;16404;49.902;10.074;2023-09-19T08:44:01;3.17;;;1.80;;
29430;SDS011;16404;49.902;10.074;2023-09-19T08:46:46;5.47;;;2.08;;
29430;SDS011;16404;49.902;10.074;2023-09-19T08:52:42;8.98;;;2.20;;
29430;SDS011;16404;49.902;10.074;2023-09-19T08:55:27;5.13;;;2.20;;
29430;SDS011;16404;49.902;10.074;2023-09-19T08:58:12;4.80;;;2.05;;
29430;SDS011;16404;49.902;10.074;2023-09-19T09:01:03;6.00;;;2.15;;
29430;SDS011;16404;49.902;10.074;2023-09-19T09:03:51;5.20;;;2.03;;
29430;SDS011;16404;49.902;10.074;2023-09-19T09:06:36;12.80;;;2.90;;
29430;SDS011;16404;49.902;10.074;2023-09-19T09:09:23;4.85;;;2.30;;
29430;SDS011;16404;49.902;10.074;2023-09-19T09:12:11;5.22;;;1.50;;
29430;SDS011;16404;49.902;10.074;2023-09-19T09:14:57;5.40;;;2.05;;
29430;SDS011;16404;49.902;10.074;2023-09-19T09:17:41;5.20;;;1.60;;
29430;SDS011;16404;49.902;10.074;2023-09-19T09:20:26;4.10;;;1.77;;
29430;SDS011;16404;49.902;10.074;2023-09-19T09:23:11;3.60;;;1.80;;
29430;SDS011;16404;49.902;10.074;2023-09-19T09:25:58;5.38;;;1.70;;
29430;SDS011;16404;49.902;10.074;2023-09-19T09:28:46;5.97;;;1.73;;
29430;SDS011;16404;49.902;10.074;2023-09-19T09:31:36;6.38;;;1.70;;
29430;SDS011;16404;49.902;10.074;2023-09-19T09:34:21;2.97;;;1.30;;
29430;SDS011;16404;49.902;10.074;2023-09-19T09:37:16;5.95;;;1.75;;
29430;SDS011;16404;49.902;10.074;2023-09-19T09:40:04;6.85;;;1.80;;
29430;SDS011;16404;49.902;10.074;2023-09-19T09:42:58;4.55;;;1.58;;
29430;SDS011;16404;49.902;10.074;2023-09-19T09:48:32;4.35;;;1.70;;
29430;SDS011;16404;49.902;10.074;2023-09-19T09:51:28;4.10;;;1.45;;
29430;SDS011;16404;49.902;10.074;2023-09-19T09:54:15;4.10;;;1.42;;
29430;SDS011;16404;49.902;10.074;2023-09-19T09:57:01;2.60;;;1.40;;
29430;SDS011;16404;49.902;10.074;2023-09-19T09:59:58;3.80;;;1.65;;
29430;SDS011;16404;49.902;10.074;2023-09-19T10:02:56;5.53;;;1.70;;
29430;SDS011;16404;49.902;10.074;2023-09-19T10:05:43;3.25;;;1.52;;
29430;SDS011;16404;49.902;10.074;2023-09-19T10:08:29;4.05;;;2.00;;
29430;SDS011;16404;49.902;10.074;2023-09-19T10:11:15;6.93;;;1.92;;
29430;SDS011;16404;49.902;10.074;2023-09-19T10:14:00;6.68;;;1.67;;
29430;SDS011;16404;49.902;10.074;2023-09-19T10:16:50;3.17;;;1.52;;
29430;SDS011;16404;49.902;10.074;2023-09-19T10:19:42;7.03;;;2.47;;
29430;SDS011;16404;49.902;10.074;2023-09-19T10:22:49;6.63;;;1.88;;
29430;SDS011;16404;49.902;10.074;2023-09-19T10:25:41;4.63;;;1.73;;
29430;SDS011;16404;49.902;10.074;2023-09-19T10:28:27;5.38;;;2.05;;
29430;SDS011;16404;49.902;10.074;2023-09-19T10:31:14;4.00;;;1.75;;
29430;SDS011;16404;49.902;10.074;2023-09-19T10:34:03;3.05;;;1.50;;
29430;SDS011;16404;49.902;10.074;2023-09-19T10:36:49;4.22;;;1.70;;
29430;SDS011;16404;49.902;10.074;2023-09-19T10:39:36;4.97;;;1.75;;
29430;SDS011;16404;49.902;10.074;2023-09-19T10:42:23;3.75;;;1.70;;
29430;SDS011;16404;49.902;10.074;2023-09-19T10:45:12;3.58;;;1.90;;
29430;SDS011;16404;49.902;10.074;2023-09-19T10:47:59;4.97;;;1.80;;
29430;SDS011;16404;49.902;10.074;2023-09-19T10:50:50;2.97;;;1.70;;
29430;SDS011;16404;49.902;10.074;2023-09-19T10:53:43;3.63;;;1.80;;
29430;SDS011;16404;49.902;10.074;2023-09-19T10:56:33;4.78;;;1.98;;
29430;SDS011;16404;49.902;10.074;2023-09-19T10:59:25;4.57;;;2.33;;
29430;SDS011;16404;49.902;10.074;2023-09-19T11:02:17;6.38;;;1.90;;
29430;SDS011;16404;49.902;10.074;2023-09-19T11:05:10;3.88;;;1.98;;
29430;SDS011;16404;49.902;10.074;2023-09-19T11:07:57;3.60;;;1.57;;
29430;SDS011;16404;49.902;10.074;2023-09-19T11:10:50;4.00;;;2.10;;
29430;SDS011;16404;49.902;10.074;2023-09-19T11:13:35;4.63;;;1.85;;
29430;SDS011;16404;49.902;10.074;2023-09-19T11:16:20;4.55;;;2.15;;
29430;SDS011;16404;49.902;10.074;2023-09-19T11:19:07;4.53;;;1.90;;
29430;SDS011;16404;49.902;10.074;2023-09-19T11:21:54;3.55;;;2.05;;
29430;SDS011;16404;49.902;10.074;2023-09-19T11:24:39;7.20;;;2.13;;
29430;SDS011;16404;49.902;10.074;2023-09-19T11:27:24;2.85;;;1.52;;
29430;SDS011;16404;49.902;10.074;2023-09-19T11:30:26;3.28;;;1.90;;
29430;SDS011;16404;49.902;10.074;2023-09-19T11:33:30;3.80;;;1.65;;
29430;SDS011;16404;49.902;10.074;2023-09-19T11:36:17;6.13;;;2.03;;
29430;SDS011;16404;49.902;10.074;2023-09-19T11:39:18;6.47;;;2.25;;
29430;SDS011;16404;49.902;10.074;2023-09-19T11:48:30;4.53;;;2.00;;
29430;SDS011;16404;49.902;10.074;2023-09-19T11:51:17;4.38;;;1.92;;
29430;SDS011;16404;49.902;10.074;2023-09-19T11:54:10;4.63;;;2.05;;
29430;SDS011;16404;49.902;10.074;2023-09-19T11:57:01;3.95;;;1.90;;
29430;SDS011;16404;49.902;10.074;2023-09-19T11:59:46;6.93;;;1.92;;
29430;SDS011;16404;49.902;10.074;2023-09-19T12:02:37;5.18;;;1.77;;
29430;SDS011;16404;49.902;10.074;2023-09-19T12:05:30;6.18;;;1.95;;
29430;SDS011;16404;49.902;10.074;2023-09-19T12:08:17;4.78;;;2.20;;
29430;SDS011;16404;49.902;10.074;2023-09-19T12:11:04;2.72;;;1.60;;
29430;SDS011;16404;49.902;10.074;2023-09-19T12:13:52;5.22;;;2.05;;
29430;SDS011;16404;49.902;10.074;2023-09-19T12:16:36;3.63;;;1.90;;
29430;SDS011;16404;49.902;10.074;2023-09-19T12:19:22;6.78;;;1.80;;
29430;SDS011;16404;49.902;10.074;2023-09-19T12:22:07;7.40;;;1.88;;
29430;SDS011;16404;49.902;10.074;2023-09-19T12:24:52;7.13;;;1.85;;
29430;SDS011;16404;49.902;10.074;2023-09-19T12:27:42;3.63;;;1.80;;
29430;SDS011;16404;49.902;10.074;2023-09-19T12:30:27;5.82;;;1.95;;
29430;SDS011;16404;49.902;10.074;2023-09-19T12:33:17;2.65;;;1.80;;
29430;SDS011;16404;49.902;10.074;2023-09-19T12:36:19;6.93;;;2.00;;
29430;SDS011;16404;49.902;10.074;2023-09-19T12:39:22;3.20;;;1.88;;
29430;SDS011;16404;49.902;10.074;2023-09-19T12:42:09;4.13;;;2.08;;
29430;SDS011;16404;49.902;10.074;2023-09-19T12:44:54;7.88;;;1.70;;
29430;SDS011;16404;49.902;10.074;2023-09-19T12:47:40;2.83;;;1.77;;
29430;SDS011;16404;49.902;10.074;2023-09-19T12:50:27;5.28;;;1.80;;
29430;SDS011;16404;49.902;10.074;2023-09-19T12:53:24;7.78;;;1.77;;
29430;SDS011;16404;49.902;10.074;2023-09-19T12:56:14;5.90;;;1.75;;
29430;SDS011;16404;49.902;10.074;2023-09-19T12:58:59;4.50;;;1.50;;
29430;SDS011;16404;49.902;10.074;2023-09-19T13:01:46;5.40;;;1.67;;
29430;SDS011;16404;49.902;10.074;2023-09-19T13:04:53;2.70;;;1.50;;
29430;SDS011;16404;49.902;10.074;2023-09-19T13:07:43;3.33;;;1.63;;
29430;SDS011;16404;49.902;10.074;2023-09-19T13:10:33;6.18;;;1.67;;
29430;SDS011;16404;49.902;10.074;2023-09-19T13:13:22;6.28;;;1.60;;
29430;SDS011;16404;49.902;10.074;2023-09-19T13:16:11;3.65;;;1.63;;
29430;SDS011;16404;49.902;10.074;2023-09-19T13:18:58;2.65;;;1.50;;
29430;SDS011;16404;49.902;10.074;2023-09-19T13:21:43;2.67;;;1.70;;
29430;SDS011;16404;49.902;10.074;2023-09-19T13:24:33;6.18;;;1.60;;
29430;SDS011;16404;49.902;10.074;2023-09-19T13:27:19;4.63;;;1.55;;
29430;SDS011;16404;49.902;10.074;2023-09-19T13:30:04;3.17;;;1.40;;
29430;SDS011;16404;49.902;10.074;2023-09-19T13:32:49;2.20;;;1.23;;
29430;SDS011;16404;49.902;10.074;2023-09-19T13:35:33;5.43;;;1.52;;
29430;SDS011;16404;49.902;10.074;2023-09-19T13:38:18;7.18;;;1.80;;
29430;SDS011;16404;49.902;10.074;2023-09-19T13:41:05;4.55;;;1.65;;
29430;SDS011;16404;49.902;10.074;2023-09-19T13:43:50;6.75;;;1.40;;
29430;SDS011;16404;49.902;10.074;2023-09-19T13:46:34;6.22;;;1.70;;
29430;SDS011;16404;49.902;10.074;2023-09-19T13:49:19;1.95;;;1.35;;
29430;SDS011;16404;49.902;10.074;2023-09-19T13:52:05;1.58;;;0.98;;
29430;SDS011;16404;49.902;10.074;2023-09-19T13:54:50;1.85;;;1.10;;
29430;SDS011;16404;49.902;10.074;2023-09-19T13:57:34;6.80;;;1.77;;
29430;SDS011;16404;49.902;10.074;2023-09-19T14:00:18;5.63;;;1.40;;
29430;SDS011;16404;49.902;10.074;2023-09-19T14:03:03;3.45;;;1.30;;
29430;SDS011;16404;49.902;10.074;2023-09-19T14:08:35;4.55;;;1.85;;
29430;SDS011;16404;49.902;10.074;2023-09-19T14:11:19;5.72;;;1.38;;
29430;SDS011;16404;49.902;10.074;2023-09-19T14:14:04;4.35;;;1.48;;
29430;SDS011;16404;49.902;10.074;2023-09-19T14:16:48;3.00;;;1.38;;
29430;SDS011;16404;49.902;10.074;2023-09-19T14:19:33;3.60;;;1.35;;
29430;SDS011;16404;49.902;10.074;2023-09-19T14:22:20;2.92;;;1.30;;
29430;SDS011;16404;49.902;10.074;2023-09-19T14:25:04;1.75;;;1.10;;
29430;SDS011;16404;49.902;10.074;2023-09-19T14:27:50;4.63;;;1.50;;
29430;SDS011;16404;49.902;10.074;2023-09-19T14:30:35;5.70;;;1.60;;
29430;SDS011;16404;49.902;10.074;2023-09-19T14:33:21;9.85;;;1.52;;
29430;SDS011;16404;49.902;10.074;2023-09-19T14:36:06;4.10;;;1.60;;
29430;SDS011;16404;49.902;10.074;2023-09-19T14:38:53;4.22;;;1.50;;
29430;SDS011;16404;49.902;10.074;2023-09-19T14:41:43;3.35;;;1.70;;
29430;SDS011;16404;49.902;10.074;2023-09-19T14:44:27;3.40;;;1.40;;
29430;SDS011;16404;49.902;10.074;2023-09-19T14:47:12;2.05;;;1.20;;
29430;SDS011;16404;49.902;10.074;2023-09-19T14:49:57;5.18;;;1.35;;
29430;SDS011;16404;49.902;10.074;2023-09-19T14:55:26;2.65;;;1.23;;
29430;SDS011;16404;49.902;10.074;2023-09-19T14:58:13;2.15;;;1.70;;
29430;SDS011;16404;49.902;10.074;2023-09-19T15:01:04;4.95;;;1.60;;
29430;SDS011;16404;49.902;10.074;2023-09-19T15:03:56;3.28;;;1.40;;
29430;SDS011;16404;49.902;10.074;2023-09-19T15:06:40;3.50;;;1.30;;
29430;SDS011;16404;49.902;10.074;2023-09-19T15:09:25;4.25;;;1.50;;
29430;SDS011;16404;49.902;10.074;2023-09-19T15:12:09;2.53;;;1.30;;
29430;SDS011;16404;49.902;10.074;2023-09-19T15:14:57;4.43;;;1.60;;
29430;SDS011;16404;49.902;10.074;2023-09-19T15:17:42;4.00;;;1.45;;
29430;SDS011;16404;49.902;10.074;2023-09-19T15:20:27;5.70;;;1.52;;
29430;SDS011;16404;49.902;10.074;2023-09-19T15:23:11;6.13;;;1.70;;
29430;SDS011;16404;49.902;10.074;2023-09-19T15:28:40;3.80;;;1.30;;
29430;SDS011;16404;49.902;10.074;2023-09-19T15:31:25;4.38;;;1.85;;
29430;SDS011;16404;49.902;10.074;2023-09-19T15:34:10;5.32;;;1.50;;
29430;SDS011;16404;49.902;10.074;2023-09-19T15:36:58;3.25;;;1.35;;
29430;SDS011;16404;49.902;10.074;2023-09-19T15:39:42;3.88;;;1.40;;
29430;SDS011;16404;49.902;10.074;2023-09-19T15:42:28;5.32;;;1.40;;
29430;SDS011;16404;49.902;10.074;2023-09-19T15:45:13;4.50;;;1.33;;
29430;SDS011;16404;49.902;10.074;2023-09-19T15:47:59;7.22;;;1.40;;
29430;SDS011;16404;49.902;10.074;2023-09-19T15:50:43;4.63;;;1.50;;
29430;SDS011;16404;49.902;10.074;2023-09-19T15:53:29;3.15;;;1.55;;
29430;SDS011;16404;49.902;10.074;2023-09-19T15:56:25;4.78;;;1.55;;
29430;SDS011;16404;49.902;10.074;2023-09-19T15:59:10;5.95;;;1.50;;
29430;SDS011;16404;49.902;10.074;2023-09-19T16:02:04;4.47;;;1.40;;
29430;SDS011;16404;49.902;10.074;2023-09-19T16:04:49;3.47;;;1.40;;
29430;SDS011;16404;49.902;10.074;2023-09-19T16:07:33;3.83;;;1.40;;
29430;SDS011;16404;49.902;10.074;2023-09-19T16:10:18;2.88;;;1.45;;
29430;SDS011;16404;49.902;10.074;2023-09-19T16:13:02;5.20;;;1.60;;
29430;SDS011;16404;49.902;10.074;2023-09-19T16:15:47;5.63;;;1.40;;
29430;SDS011;16404;49.902;10.074;2023-09-19T16:18:32;2.60;;;1.25;;
29430;SDS011;16404;49.902;10.074;2023-09-19T16:21:17;4.95;;;1.55;;
29430;SDS011;16404;49.902;10.074;2023-09-19T16:24:03;2.65;;;1.50;;
29430;SDS011;16404;49.902;10.074;2023-09-19T16:26:48;2.65;;;1.40;;
29430;SDS011;16404;49.902;10.074;2023-09-19T16:29:33;4.35;;;1.50;;
29430;SDS011;16404;49.902;10.074;2023-09-19T16:32:17;3.63;;;1.30;;
29430;SDS011;16404;49.902;10.074;2023-09-19T16:35:03;5.18;;;1.48;;
29430;SDS011;16404;49.902;10.074;2023-09-19T16:37:48;5.05;;;1.60;;
29430;SDS011;16404;49.902;10.074;2023-09-19T16:40:33;4.82;;;1.58;;
29430;SDS011;16404;49.902;10.074;2023-09-19T16:43:17;7.30;;;1.85;;
29430;SDS011;16404;49.902;10.074;2023-09-19T16:46:03;7.20;;;1.50;;
29430;SDS011;16404;49.902;10.074;2023-09-19T16:48:52;10.23;;;2.10;;
29430;SDS011;16404;49.902;10.074;2023-09-19T16:51:36;11.63;;;2.30;;
29430;SDS011;16404;49.902;10.074;2023-09-19T16:54:21;7.30;;;1.90;;
29430;SDS011;16404;49.902;10.074;2023-09-19T16:57:07;3.70;;;1.65;;
29430;SDS011;16404;49.902;10.074;2023-09-19T16:59:51;7.70;;;2.05;;
29430;SDS011;16404;49.902;10.074;2023-09-19T17:02:36;6.03;;;1.48;;
29430;SDS011;16404;49.902;10.074;2023-09-19T17:05:21;2.65;;;1.30;;
29430;SDS011;16404;49.902;10.074;2023-09-19T17:08:06;2.75;;;1.40;;
29430;SDS011;16404;49.902;10.074;2023-09-19T17:10:51;5.15;;;1.27;;
29430;SDS011;16404;49.902;10.074;2023-09-19T17:13:43;4.28;;;1.65;;
29430;SDS011;16404;49.902;10.074;2023-09-19T17:16:30;4.35;;;1.40;;